Flight Track Log - Related Links

Times and Time Zones

All times are in EDT time to prevent confusion due to time zone crossing. See the RPA4910 flight status page for this flight to view local times or setup timezone preferences in your user account.

Time Position Orientation Groundspeed Altitude Reporting Facility
EDT Latitude Longitude Course Direction KTS MPH feet Rate Location/Type
Fri 11:24:27 PM 40.6500 -74.1833 90° East 194 223 1,800  Level New York TRACON
Fri 11:25:33 PM 40.5833 -74.2167 201° Southwest 224 258 3,600 1,300 Climbing New York TRACON
Fri 11:26:00 PM 40.9804 -74.1433 North  Level FlightAware Approximate
Fri 11:26:27 PM 40.5333 -74.2667 217° Southwest 260 299 4,400  Level New York TRACON
Fri 11:27:00 PM 41.0801 -74.1350 North  Level FlightAware Approximate
Fri 11:27:27 PM 40.5833 -74.3167 323° Northwest 239 275 5,700  Level New York TRACON
Fri 11:28:00 PM 41.1585 -74.0952 74° East  Level FlightAware Approximate
Fri 11:28:33 PM 40.6500 -74.3333 349° North 282 325 6,000  Level New York TRACON
Fri 11:29:00 PM 41.1833 -73.9673 90° East  Level FlightAware Approximate
Fri 11:29:33 PM 40.7333 -74.3000 17° North 271 312 6,000  Level New York TRACON
Fri 11:30:33 PM 40.8000 -74.2667 21° North 286 329 6,000  Level New York TRACON
Fri 11:31:33 PM 40.8500 -74.1833 52° Northeast 300 345 6,000 450 Level New York TRACON
Fri 11:32:33 PM 40.9167 -74.1167 37° Northeast 285 328 6,900 900 Climbing New York TRACON
Fri 11:33:33 PM 40.9667 -74.0333 52° Northeast 289 333 7,800 1,150 Climbing New York TRACON
Fri 11:34:33 PM 41.0167 -73.9500 51° Northeast 300 345 9,200 1,368 Climbing New York TRACON
Fri 11:35:27 PM 41.0667 -73.8833 45° Northeast 301 346 10,400 1,000 Climbing New York TRACON
Fri 11:36:27 PM 41.1333 -73.8000 43° Northeast 320 368 11,100 950 Climbing New York TRACON
Fri 11:37:27 PM 41.2000 -73.7167 43° Northeast 324 373 12,300 905 Climbing New York TRACON
Fri 11:38:33 PM 41.2667 -73.6167 48° Northeast 330 380 13,000 381 Climbing New York TRACON
Fri 11:39:33 PM 41.3333 -73.5167 48° Northeast 358 412 13,100 803 Climbing New York TRACON
Fri 11:40:40 PM 41.4042 -73.4253 44° Northeast 378 435 14,700 1,323 Climbing Boston Center
Fri 11:41:40 PM 41.4569 -73.3458 48° Northeast 336 387 15,900 650 Climbing Boston Center
Fri 11:42:40 PM 41.5264 -73.2581 43° Northeast 327 376 16,000 850 Climbing Boston Center
Fri 11:43:40 PM 41.6000 -73.1592 45° Northeast 327 376 17,600 1,450 Climbing Boston Center
Fri 11:44:40 PM 41.6628 -73.1125 29° Northeast 306 352 18,900 1,200 Climbing Boston Center
Fri 11:45:40 PM 41.7481 -73.1244 354° North 270 311 20,000 1,050 Climbing Boston Center
Fri 11:46:40 PM 41.8272 -73.1450 349° North 270 311 21,000 1,000 Climbing Boston Center
Fri 11:47:40 PM 41.9064 -73.1569 354° North 280 322 22,000 900 Climbing Boston Center
Fri 11:48:40 PM 41.9853 -73.1692 353° North 280 322 22,800 800 Climbing Boston Center
Fri 11:49:40 PM 42.0625 -73.1839 352° North 280 322 23,600 800 Climbing Boston Center
Fri 11:50:40 PM 42.1417 -73.1961 353° North 280 322 24,400 700 Climbing Boston Center
Fri 11:51:40 PM 42.2206 -73.2111 352° North 280 322 25,000 300 Climbing Boston Center
Fri 11:52:40 PM 42.3039 -73.2261 352° North 287 330 25,000  Level Boston Center
Fri 11:53:40 PM 42.3894 -73.2300 358° North 307 353 25,000  Level Boston Center
Fri 11:54:40 PM 42.4808 -73.2481 352° North 324 373 25,000  Level Boston Center
Fri 11:55:40 PM 42.5725 -73.2661 352° North 334 384 25,000  Level Boston Center
Fri 11:56:40 PM 42.6786 -73.2931 349° North 339 390 25,000  Level Boston Center
Fri 11:57:40 PM 42.7764 -73.3086 353° North 344 396 25,000  Level Boston Center
Fri 11:58:40 PM 42.8742 -73.3269 352° North 349 402 25,000 -100 Level Boston Center
Fri 11:59:40 PM 42.9742 -73.3425 354° North 354 407 24,800 -455 Descending Boston Center
Sat 12:00:52 AM 43.0972 -73.3358 North 354 407 24,000 -364 Descending Boston Center
Sat 12:01:52 AM 43.2036 -73.3231 North 366 421 24,000 -600 Level Boston Center
Sat 12:02:52 AM 43.3058 -73.3103 North 366 421 22,800 -1,150 Descending Boston Center
Sat 12:03:52 AM 43.4081 -73.2975 North 366 421 21,700 -1,150 Descending Boston Center
Sat 12:04:52 AM 43.5100 -73.2875 North 361 415 20,500 -1,250 Descending Boston Center
Sat 12:05:52 AM 43.6103 -73.2744 North 361 415 19,200 -1,750 Descending Boston Center
Sat 12:06:52 AM 43.7167 -73.2617 North 371 427 17,000 -2,100 Descending Boston Center
Sat 12:07:52 AM 43.8189 -73.2486 North 371 427 15,000 -2,000 Descending Boston Center
Sat 12:08:52 AM 43.9128 -73.2383 North 358 412 13,000 -2,050 Descending Boston Center
Sat 12:09:52 AM 44.0003 -73.2281 North 331 381 10,900 -1,950 Descending Boston Center
Sat 12:10:52 AM 44.0817 -73.2233 North 308 354 9,100 -1,750 Descending Boston Center
Sat 12:11:52 AM 44.1586 -73.2097 North 286 329 7,400 -1,850 Descending Boston Center
Sat 12:12:52 AM 44.2317 -73.2022 North 271 312 5,400 -1,450 Descending Boston Center
Sat 12:13:52 AM 44.2983 -73.1942 North 256 295 4,500 -1,100 Descending Boston Center
Sat 12:14:52 AM 44.3547 -73.2036 353° North 221 254 3,200 -1,100 Descending Boston Center
Sat 12:15:52 AM 44.4192 -73.2219 349° North 221 254 2,300 -450 Descending Boston Center
Sat 12:16:52 AM 44.4689 -73.2517 337° Northwest 215 247 2,300 -250 Level Boston Center
Sat 12:17:52 AM 44.5189 -73.2522 360° North 192 221 1,800 -650 Descending Boston Center
Sat 12:18:52 AM 44.5025 -73.1997 114° Southeast 72 83 1,000 -682 Descending Boston Center
Sat 12:20:04 AM 44.4778 -73.1617 132° Southeast 78 90 300 -273 Descending Boston Center
Sat 12:21:04 AM 44.4675 -73.1528 148° Southeast 74 85 400 100 Climbing Boston Center

Login

Don't have an account? Register now (free) for customized features, flight alerts, and more!